createdAt,value
2023-02-04T00:00:08.797Z,99.90
2023-02-04T00:00:32.910Z,99.90
2023-02-04T00:00:55.870Z,99.90
2023-02-04T00:01:18.518Z,99.90
2023-02-04T00:01:41.278Z,99.90
2023-02-04T00:02:04.044Z,99.90
2023-02-04T00:02:29.892Z,99.90
2023-02-04T00:02:53.027Z,99.90
2023-02-04T00:03:16.392Z,99.90
2023-02-04T00:03:39.360Z,99.90
2023-02-04T00:04:02.088Z,75.20
2023-02-04T00:04:29.349Z,99.90
2023-02-04T00:04:52.136Z,99.90
2023-02-04T00:05:15.127Z,99.90
2023-02-04T00:05:37.848Z,99.90
2023-02-04T00:06:00.738Z,99.90
2023-02-04T00:06:23.529Z,99.90
2023-02-04T00:06:48.651Z,1.00
2023-02-04T00:07:11.383Z,1.00
2023-02-04T00:07:36.566Z,1.00
2023-02-04T00:07:59.296Z,1.00
2023-02-04T00:08:24.409Z,1.00
2023-02-04T00:08:47.134Z,1.00
2023-02-04T00:09:09.932Z,1.00
2023-02-04T00:09:34.934Z,1.00
2023-02-04T00:10:00.170Z,1.00
2023-02-04T00:10:22.992Z,1.00
2023-02-04T00:10:47.931Z,1.00
2023-02-04T00:11:13.624Z,1.00
2023-02-04T00:11:38.986Z,1.00
2023-02-04T00:12:01.787Z,1.00
2023-02-04T00:12:24.511Z,1.00
2023-02-04T00:12:50.210Z,1.00
2023-02-04T00:13:12.968Z,1.00
2023-02-04T00:13:38.130Z,1.00
2023-02-04T00:14:03.375Z,1.00
2023-02-04T00:14:26.082Z,1.00
2023-02-04T00:14:51.119Z,1.00
2023-02-04T00:15:13.914Z,1.00
2023-02-04T00:15:36.708Z,1.00
2023-02-04T00:15:59.515Z,1.00
2023-02-04T00:16:22.472Z,1.00
2023-02-04T00:16:45.457Z,1.00
2023-02-04T00:17:10.454Z,1.00
2023-02-04T00:17:33.231Z,1.00
2023-02-04T00:17:56.020Z,1.00
2023-02-04T00:18:22.088Z,1.00
2023-02-04T00:18:44.975Z,99.90
2023-02-04T00:19:07.755Z,99.90
2023-02-04T00:19:31.958Z,99.90
2023-02-04T00:19:54.689Z,99.90
2023-02-04T00:20:19.743Z,99.90
2023-02-04T00:20:42.437Z,99.90
2023-02-04T00:21:05.435Z,49.50
2023-02-04T00:21:28.182Z,55.20
2023-02-04T00:21:50.903Z,99.90
2023-02-04T00:22:13.592Z,99.90
2023-02-04T00:22:38.875Z,99.90
2023-02-04T00:23:01.658Z,99.90
2023-02-04T00:23:24.392Z,99.90
2023-02-04T00:23:47.134Z,99.90
2023-02-04T00:24:10.450Z,99.90
2023-02-04T00:24:33.215Z,18.00
2023-02-04T00:24:55.905Z,56.40
2023-02-04T00:25:18.712Z,53.50
2023-02-04T00:25:41.624Z,4.80
2023-02-04T00:26:04.605Z,25.90
2023-02-04T00:26:27.390Z,73.20
2023-02-04T00:26:50.067Z,27.70
2023-02-04T00:27:15.003Z,52.20
2023-02-04T00:27:37.884Z,51.00
2023-02-04T00:28:00.939Z,53.90
2023-02-04T00:28:23.696Z,61.70
2023-02-04T00:28:46.491Z,53.10
2023-02-04T00:29:11.499Z,45.50
2023-02-04T00:29:34.246Z,32.60
2023-02-04T00:29:57.794Z,55.80
2023-02-04T00:30:21.124Z,59.40
2023-02-04T00:30:43.871Z,24.70
2023-02-04T00:31:06.884Z,23.20
2023-02-04T00:31:31.931Z,54.70
2023-02-04T00:31:55.752Z,99.80
2023-02-04T00:32:18.588Z,59.90
2023-02-04T00:32:41.642Z,99.90
2023-02-04T00:33:04.548Z,42.40
2023-02-04T00:33:27.326Z,3.20
2023-02-04T00:33:50.167Z,12.90
2023-02-04T00:34:13.060Z,91.00
2023-02-04T00:34:37.276Z,66.80
2023-02-04T00:35:01.919Z,99.90
2023-02-04T00:35:24.783Z,91.90
2023-02-04T00:35:47.547Z,88.80
2023-02-04T00:36:10.752Z,72.50
2023-02-04T00:36:33.496Z,99.90
2023-02-04T00:36:56.276Z,99.90
2023-02-04T00:37:18.963Z,99.90
2023-02-04T00:37:41.702Z,99.90
2023-02-04T00:38:04.388Z,99.90
2023-02-04T00:38:29.159Z,99.90
2023-02-04T00:38:51.966Z,99.90
2023-02-04T00:39:14.593Z,99.90
2023-02-04T00:39:38.402Z,99.90
2023-02-04T00:40:01.142Z,99.90
2023-02-04T00:40:23.874Z,99.90
2023-02-04T00:40:46.578Z,99.90
2023-02-04T00:41:09.302Z,99.90
2023-02-04T00:41:34.512Z,99.90
2023-02-04T00:41:57.300Z,21.50
2023-02-04T00:42:20.040Z,99.90
2023-02-04T00:42:42.848Z,56.70
2023-02-04T00:43:05.479Z,7.00
2023-02-04T00:43:30.667Z,3.90
2023-02-04T00:43:53.352Z,99.90
2023-02-04T00:44:18.226Z,1.00
2023-02-04T00:44:41.247Z,1.00
2023-02-04T00:45:04.219Z,1.00
2023-02-04T00:45:27.222Z,99.90
2023-02-04T00:45:49.982Z,99.90
2023-02-04T00:46:13.000Z,99.90
2023-02-04T00:46:38.925Z,99.90
2023-02-04T00:47:01.681Z,99.90
2023-02-04T00:47:24.469Z,99.90
2023-02-04T00:47:47.101Z,99.90
2023-02-04T00:48:09.777Z,99.90
2023-02-04T00:48:35.723Z,99.90
2023-02-04T00:48:58.458Z,99.90
2023-02-04T00:49:21.178Z,99.90
2023-02-04T00:49:45.314Z,99.90
2023-02-04T00:50:08.465Z,99.90
2023-02-04T00:50:31.459Z,99.90
2023-02-04T00:50:54.562Z,99.90
2023-02-04T00:51:19.463Z,99.90
2023-02-04T00:51:46.475Z,99.90
2023-02-04T00:52:09.518Z,99.90
2023-02-04T00:52:32.323Z,99.90
2023-02-04T00:52:57.210Z,99.90
2023-02-04T00:53:20.093Z,99.90
2023-02-04T00:53:42.848Z,99.90
2023-02-04T00:54:08.095Z,99.90
2023-02-04T00:54:30.903Z,99.90
2023-02-04T00:54:55.805Z,99.90
2023-02-04T00:55:18.728Z,99.90
2023-02-04T00:55:41.535Z,99.90
2023-02-04T00:56:04.485Z,99.90
2023-02-04T00:56:29.687Z,99.90
2023-02-04T00:56:52.423Z,99.90
2023-02-04T00:57:15.204Z,99.90
2023-02-04T00:57:37.928Z,99.90
2023-02-04T00:58:00.721Z,99.90
2023-02-04T00:58:25.858Z,99.90
2023-02-04T00:58:48.630Z,99.90
2023-02-04T00:59:11.444Z,99.90
2023-02-04T00:59:34.109Z,99.90
2023-02-04T00:59:56.973Z,99.90
2023-02-04T01:00:20.329Z,99.90
2023-02-04T01:00:43.044Z,99.90
2023-02-04T01:01:06.110Z,99.90
2023-02-04T01:01:29.479Z,99.90
2023-02-04T01:01:52.159Z,99.90
2023-02-04T01:02:18.550Z,99.90
2023-02-04T01:02:41.569Z,99.90
2023-02-04T01:03:04.503Z,99.90
2023-02-04T01:03:27.250Z,1.00
2023-02-04T01:03:49.960Z,99.90
2023-02-04T01:04:12.702Z,99.90
2023-02-04T01:04:35.403Z,99.90
2023-02-04T01:05:02.769Z,1.00
2023-02-04T01:05:25.506Z,1.00
2023-02-04T01:05:48.390Z,1.00
2023-02-04T01:06:11.611Z,99.90
2023-02-04T01:06:35.200Z,99.90
2023-02-04T01:06:58.754Z,99.90
2023-02-04T01:07:23.853Z,1.00
2023-02-04T01:07:46.778Z,99.90
2023-02-04T01:08:09.664Z,99.90
2023-02-04T01:08:34.768Z,1.00
2023-02-04T01:08:57.441Z,5.10
2023-02-04T01:09:20.573Z,48.70
2023-02-04T01:09:43.247Z,67.70
2023-02-04T01:10:06.467Z,19.00
2023-02-04T01:10:29.618Z,26.60
2023-02-04T01:10:52.687Z,1.00
2023-02-04T01:11:17.689Z,5.20
2023-02-04T01:11:40.396Z,17.60
2023-02-04T01:12:05.677Z,1.00
2023-02-04T01:12:30.619Z,1.00
2023-02-04T01:12:53.809Z,25.70
2023-02-04T01:13:18.950Z,1.00
2023-02-04T01:13:41.717Z,72.80
2023-02-04T01:14:07.134Z,1.00
2023-02-04T01:14:29.858Z,93.30
2023-02-04T01:14:55.142Z,7.10
2023-02-04T01:15:17.973Z,24.50
2023-02-04T01:15:43.473Z,1.00
2023-02-04T01:16:08.617Z,1.00
2023-02-04T01:16:31.573Z,1.00
2023-02-04T01:16:54.305Z,1.00
2023-02-04T01:17:19.299Z,1.00
2023-02-04T01:17:42.005Z,1.00
2023-02-04T01:18:04.688Z,1.00
2023-02-04T01:18:30.632Z,1.00
2023-02-04T01:18:55.895Z,1.00
2023-02-04T01:19:22.009Z,1.00
2023-02-04T01:19:44.805Z,1.00
2023-02-04T01:20:11.230Z,1.00
2023-02-04T01:20:34.094Z,1.00
2023-02-04T01:20:59.120Z,1.00
2023-02-04T01:21:24.792Z,1.00
2023-02-04T01:21:47.558Z,1.00
2023-02-04T01:22:10.236Z,1.00
2023-02-04T01:22:32.967Z,1.00
2023-02-04T01:22:58.104Z,1.00
2023-02-04T01:23:20.804Z,1.00
2023-02-04T01:23:43.529Z,1.30
2023-02-04T01:24:06.413Z,99.90
2023-02-04T01:24:31.728Z,99.90
2023-02-04T01:24:54.420Z,99.90
2023-02-04T01:25:17.306Z,99.90
2023-02-04T01:25:40.004Z,99.90
2023-02-04T01:26:02.662Z,99.90
2023-02-04T01:26:25.444Z,1.00
2023-02-04T01:26:48.204Z,1.00
2023-02-04T01:27:11.154Z,1.00
2023-02-04T01:27:36.306Z,1.00
2023-02-04T01:27:58.974Z,99.90
2023-02-04T01:28:21.826Z,1.00
2023-02-04T01:28:44.671Z,1.00
2023-02-04T01:29:07.430Z,1.00
2023-02-04T01:29:30.137Z,1.00
2023-02-04T01:29:52.850Z,1.00
2023-02-04T01:30:15.866Z,1.00
2023-02-04T01:30:38.617Z,1.00
2023-02-04T01:31:04.378Z,1.00
2023-02-04T01:31:29.577Z,1.00
2023-02-04T01:31:52.486Z,1.00
2023-02-04T01:32:18.484Z,1.00
2023-02-04T01:32:41.438Z,1.00
2023-02-04T01:33:06.350Z,1.00
2023-02-04T01:33:32.080Z,1.00
2023-02-04T01:33:54.764Z,1.00
2023-02-04T01:34:17.620Z,1.00
2023-02-04T01:34:42.892Z,1.00
2023-02-04T01:35:09.339Z,1.00
2023-02-04T01:35:33.551Z,1.00
2023-02-04T01:35:56.274Z,99.90
2023-02-04T01:36:22.090Z,99.90
2023-02-04T01:36:45.295Z,99.90
2023-02-04T01:37:10.459Z,1.00
2023-02-04T01:37:34.251Z,1.00
2023-02-04T01:37:59.146Z,1.00
2023-02-04T01:38:24.444Z,1.00
2023-02-04T01:38:47.174Z,99.90
2023-02-04T01:39:09.923Z,99.90
2023-02-04T01:39:34.245Z,1.00
2023-02-04T01:39:56.981Z,99.90
2023-02-04T01:40:20.098Z,99.90
2023-02-04T01:40:42.858Z,1.00
2023-02-04T01:41:08.080Z,1.00
2023-02-04T01:41:30.728Z,1.00
2023-02-04T01:41:53.456Z,1.00
2023-02-04T01:42:16.213Z,1.00
2023-02-04T01:42:38.897Z,1.00
2023-02-04T01:43:03.877Z,1.00
2023-02-04T01:43:26.579Z,52.40
2023-02-04T01:43:49.345Z,95.40
2023-02-04T01:44:12.017Z,99.90
2023-02-04T01:44:34.865Z,99.90
2023-02-04T01:44:57.644Z,99.90
2023-02-04T01:45:20.548Z,99.90
2023-02-04T01:45:43.450Z,92.50
2023-02-04T01:46:07.069Z,39.60
2023-02-04T01:46:29.892Z,99.90
2023-02-04T01:46:52.658Z,99.90
2023-02-04T01:47:17.867Z,99.90
2023-02-04T01:47:40.651Z,99.90
2023-02-04T01:48:03.650Z,99.90
2023-02-04T01:48:26.425Z,99.90
2023-02-04T01:48:49.153Z,76.80
2023-02-04T01:49:11.987Z,99.90
2023-02-04T01:49:34.703Z,41.90
2023-02-04T01:49:57.541Z,57.10
2023-02-04T01:50:22.732Z,99.90
2023-02-04T01:50:47.104Z,99.90
2023-02-04T01:51:11.773Z,99.90
2023-02-04T01:51:34.563Z,99.90
2023-02-04T01:51:57.298Z,99.90
2023-02-04T01:52:20.067Z,99.90
2023-02-04T01:52:42.973Z,1.00
2023-02-04T01:53:08.120Z,1.00
2023-02-04T01:53:30.866Z,1.00
2023-02-04T01:53:56.038Z,1.00
2023-02-04T01:54:20.980Z,1.00
2023-02-04T01:54:43.688Z,1.00
2023-02-04T01:55:11.854Z,1.00
2023-02-04T01:55:34.636Z,1.00
2023-02-04T01:55:59.528Z,1.00
2023-02-04T01:56:25.934Z,1.00
2023-02-04T01:56:50.002Z,49.20
2023-02-04T01:57:15.038Z,21.20
2023-02-04T01:57:37.799Z,90.70
2023-02-04T01:58:00.554Z,91.10
2023-02-04T01:58:25.728Z,1.00
2023-02-04T01:58:50.901Z,1.00
2023-02-04T01:59:14.583Z,1.00
2023-02-04T01:59:41.328Z,1.00
2023-02-04T02:00:06.958Z,1.00
2023-02-04T02:00:30.807Z,1.00
2023-02-04T02:00:56.053Z,1.00
2023-02-04T02:01:35.568Z,1.00
2023-02-04T02:02:01.735Z,1.00
2023-02-04T02:02:41.541Z,1.00
2023-02-04T02:03:05.178Z,1.00
2023-02-04T02:03:27.924Z,1.00
2023-02-04T02:03:50.602Z,1.00
2023-02-04T02:04:17.804Z,1.00
2023-02-04T02:04:40.514Z,1.00
2023-02-04T02:05:03.220Z,1.00
2023-02-04T02:05:30.799Z,1.00
2023-02-04T02:05:54.977Z,99.90
2023-02-04T02:06:19.921Z,1.00
2023-02-04T02:06:44.273Z,1.00
2023-02-04T02:07:07.157Z,1.00
2023-02-04T02:07:30.024Z,1.00
2023-02-04T02:07:54.303Z,1.00
2023-02-04T02:08:17.148Z,1.00
2023-02-04T02:08:42.114Z,1.00
2023-02-04T02:09:04.960Z,99.90
2023-02-04T02:09:27.858Z,1.00
2023-02-04T02:09:50.571Z,99.90
2023-02-04T02:10:13.373Z,99.90
2023-02-04T02:10:36.099Z,99.90
2023-02-04T02:10:58.773Z,99.90
2023-02-04T02:11:21.448Z,99.90
2023-02-04T02:11:44.147Z,99.90
2023-02-04T02:12:06.990Z,99.90
2023-02-04T02:12:32.193Z,1.00
2023-02-04T02:12:55.550Z,99.90
2023-02-04T02:13:19.065Z,99.90
2023-02-04T02:13:41.760Z,99.90
2023-02-04T02:14:04.518Z,1.00
2023-02-04T02:14:27.329Z,99.90
2023-02-04T02:14:50.085Z,99.90
2023-02-04T02:15:13.284Z,99.90
2023-02-04T02:15:36.044Z,99.90
2023-02-04T02:15:58.893Z,99.90
2023-02-04T02:16:21.711Z,99.90
2023-02-04T02:16:47.414Z,99.90
2023-02-04T02:17:10.312Z,99.90
2023-02-04T02:17:33.933Z,1.00
2023-02-04T02:17:59.685Z,1.00
2023-02-04T02:18:25.438Z,1.00
2023-02-04T02:18:48.204Z,99.90
2023-02-04T02:19:15.757Z,99.90
2023-02-04T02:19:38.485Z,99.90
2023-02-04T02:20:01.204Z,99.90
2023-02-04T02:20:25.285Z,99.90
2023-02-04T02:20:48.017Z,99.90
2023-02-04T02:21:12.978Z,99.90
2023-02-04T02:21:38.317Z,99.90
2023-02-04T02:22:04.016Z,99.90
2023-02-04T02:22:33.212Z,1.00
2023-02-04T02:23:04.903Z,1.00
2023-02-04T02:23:32.082Z,1.00
2023-02-04T02:24:01.478Z,1.00
2023-02-04T02:24:27.957Z,99.90
2023-02-04T02:24:50.779Z,99.90
2023-02-04T02:25:14.008Z,99.90
2023-02-04T02:25:36.682Z,99.90
2023-02-04T02:25:59.460Z,99.90
2023-02-04T02:26:22.259Z,99.90
2023-02-04T02:26:47.553Z,1.00
2023-02-04T02:27:13.456Z,1.00
2023-02-04T02:27:36.139Z,1.00
2023-02-04T02:28:01.078Z,1.00
2023-02-04T02:28:23.863Z,1.00
2023-02-04T02:28:47.862Z,1.00
2023-02-04T02:29:10.584Z,99.90
2023-02-04T02:29:35.663Z,99.90
2023-02-04T02:29:58.497Z,99.90
2023-02-04T02:30:21.424Z,99.90
2023-02-04T02:30:46.018Z,99.90
2023-02-04T02:31:09.097Z,99.90
2023-02-04T02:31:32.091Z,99.90
2023-02-04T02:31:57.454Z,99.90
2023-02-04T02:32:20.385Z,99.90
2023-02-04T02:32:43.849Z,99.90
2023-02-04T02:33:06.540Z,99.90
2023-02-04T02:33:29.292Z,99.90
2023-02-04T02:33:52.033Z,99.90
2023-02-04T02:34:14.697Z,99.90
2023-02-04T02:34:39.634Z,99.90
2023-02-04T02:35:02.345Z,99.90
2023-02-04T02:35:25.083Z,99.90
2023-02-04T02:35:50.686Z,99.90
2023-02-04T02:36:13.569Z,99.90
2023-02-04T02:36:36.506Z,99.90
2023-02-04T02:36:59.289Z,99.90
2023-02-04T02:37:22.045Z,99.90
2023-02-04T02:37:44.807Z,99.90
2023-02-04T02:38:07.488Z,99.90
2023-02-04T02:38:30.259Z,99.90
2023-02-04T02:38:53.023Z,99.90
2023-02-04T02:39:19.583Z,99.90
2023-02-04T02:39:42.801Z,99.90
2023-02-04T02:40:08.309Z,99.90
2023-02-04T02:40:31.318Z,99.90
2023-02-04T02:40:54.317Z,99.90
2023-02-04T02:41:16.996Z,99.90
2023-02-04T02:41:40.344Z,99.90
2023-02-04T02:42:03.073Z,99.90
2023-02-04T02:42:25.775Z,99.90
2023-02-04T02:42:52.963Z,1.00
2023-02-04T02:43:16.917Z,1.00
2023-02-04T02:43:41.873Z,1.00
2023-02-04T02:44:05.309Z,1.00
2023-02-04T02:44:28.009Z,1.00
2023-02-04T02:44:50.746Z,1.00
2023-02-04T02:45:16.807Z,1.00
2023-02-04T02:45:39.487Z,1.00
2023-02-04T02:46:02.282Z,1.00
2023-02-04T02:46:28.165Z,1.00
2023-02-04T02:46:50.878Z,1.00
2023-02-04T02:47:15.116Z,1.00
2023-02-04T02:47:40.172Z,1.00
2023-02-04T02:48:03.497Z,1.00
2023-02-04T02:48:28.692Z,1.00
2023-02-04T02:48:53.605Z,1.00
2023-02-04T02:49:20.578Z,1.00
2023-02-04T02:49:43.395Z,1.00
2023-02-04T02:50:09.264Z,1.00
2023-02-04T02:50:32.715Z,99.90
2023-02-04T02:50:55.840Z,1.00
2023-02-04T02:51:20.859Z,1.00
2023-02-04T02:51:43.577Z,1.00
2023-02-04T02:52:06.244Z,1.00
2023-02-04T02:52:31.206Z,1.00
2023-02-04T02:52:53.971Z,99.90
2023-02-04T02:53:20.425Z,99.90
2023-02-04T02:53:43.158Z,99.90
2023-02-04T02:54:08.433Z,1.00
2023-02-04T02:54:34.953Z,1.00
2023-02-04T02:54:57.707Z,1.00
2023-02-04T02:55:21.770Z,99.90
2023-02-04T02:55:44.497Z,99.90
2023-02-04T02:56:10.593Z,1.00
2023-02-04T02:56:35.860Z,1.00
2023-02-04T02:56:58.798Z,1.00
2023-02-04T02:57:22.926Z,1.00
2023-02-04T02:57:48.145Z,1.00
2023-02-04T02:58:12.650Z,99.90
2023-02-04T02:58:36.508Z,99.90
2023-02-04T02:59:16.502Z,1.00
2023-02-04T02:59:39.181Z,1.00
2023-02-04T03:00:04.321Z,1.00
2023-02-04T03:00:27.857Z,1.00
2023-02-04T03:00:52.738Z,8.80
2023-02-04T03:01:15.436Z,1.00
2023-02-04T03:01:38.301Z,99.90
2023-02-04T03:02:04.518Z,1.00
2023-02-04T03:02:27.231Z,1.00
2023-02-04T03:02:56.880Z,1.00
2023-02-04T03:03:24.319Z,1.00
2023-02-04T03:03:48.501Z,1.00
2023-02-04T03:04:11.181Z,1.00
2023-02-04T03:04:35.214Z,99.90
2023-02-04T03:04:58.081Z,99.90
2023-02-04T03:05:20.796Z,99.90
2023-02-04T03:05:44.312Z,99.90
2023-02-04T03:06:08.331Z,1.00
2023-02-04T03:06:31.165Z,99.90
2023-02-04T03:06:56.232Z,1.00
2023-02-04T03:07:19.119Z,99.90
2023-02-04T03:07:44.176Z,99.90
2023-02-04T03:08:06.939Z,99.90
2023-02-04T03:08:29.575Z,99.90
2023-02-04T03:08:55.334Z,99.90
2023-02-04T03:09:18.060Z,99.90
2023-02-04T03:09:42.275Z,99.90
2023-02-04T03:10:05.636Z,99.90
2023-02-04T03:10:28.544Z,99.90
2023-02-04T03:10:53.601Z,1.00
2023-02-04T03:11:16.316Z,1.00
2023-02-04T03:11:41.223Z,1.00
2023-02-04T03:12:05.627Z,1.00
2023-02-04T03:12:28.408Z,99.90
2023-02-04T03:12:51.237Z,99.90
2023-02-04T03:13:17.955Z,1.00
2023-02-04T03:13:40.709Z,1.00
2023-02-04T03:14:03.697Z,99.90
2023-02-04T03:14:28.970Z,99.90
2023-02-04T03:14:51.709Z,99.90
2023-02-04T03:15:14.400Z,99.90
2023-02-04T03:15:37.241Z,99.90
2023-02-04T03:16:00.117Z,99.90
2023-02-04T03:16:22.876Z,99.90
2023-02-04T03:16:47.834Z,99.90
2023-02-04T03:17:10.602Z,99.90
2023-02-04T03:17:35.871Z,1.00
2023-02-04T03:17:58.844Z,99.90
2023-02-04T03:18:21.617Z,1.00
2023-02-04T03:18:44.330Z,99.90
2023-02-04T03:19:07.218Z,1.00
2023-02-04T03:19:32.066Z,1.00
2023-02-04T03:19:54.933Z,1.00
2023-02-04T03:20:17.774Z,99.90
2023-02-04T03:20:43.777Z,99.90
2023-02-04T03:21:06.810Z,99.90
2023-02-04T03:21:29.502Z,99.90
2023-02-04T03:21:52.214Z,99.90
2023-02-04T03:22:14.967Z,99.90
2023-02-04T03:22:37.672Z,99.90
2023-02-04T03:23:00.397Z,99.90
2023-02-04T03:23:23.266Z,99.90
2023-02-04T03:23:46.021Z,99.90
2023-02-04T03:24:08.815Z,99.90
2023-02-04T03:24:33.926Z,99.90
2023-02-04T03:24:58.532Z,99.90
2023-02-04T03:25:24.700Z,99.90
2023-02-04T03:25:47.425Z,1.00
2023-02-04T03:26:10.155Z,99.90
2023-02-04T03:26:32.930Z,99.90
2023-02-04T03:26:55.656Z,99.90
2023-02-04T03:27:19.053Z,99.90
2023-02-04T03:27:41.804Z,99.90
2023-02-04T03:28:08.113Z,1.00
2023-02-04T03:28:33.467Z,1.00
2023-02-04T03:28:56.172Z,99.90
2023-02-04T03:29:18.912Z,99.90
2023-02-04T03:29:46.640Z,1.00
2023-02-04T03:30:12.809Z,1.00
2023-02-04T03:30:35.539Z,1.00
2023-02-04T03:31:00.628Z,1.00
2023-02-04T03:31:23.515Z,1.00
2023-02-04T03:31:48.769Z,1.00
2023-02-04T03:32:11.757Z,1.00
2023-02-04T03:32:34.500Z,1.00
2023-02-04T03:32:57.416Z,1.00
2023-02-04T03:33:22.608Z,1.00
2023-02-04T03:33:45.379Z,1.00
2023-02-04T03:34:08.117Z,1.00
2023-02-04T03:34:30.897Z,1.00
2023-02-04T03:34:53.567Z,1.00
2023-02-04T03:35:16.484Z,1.00
2023-02-04T03:35:41.744Z,1.00
2023-02-04T03:36:07.536Z,1.00
2023-02-04T03:36:30.238Z,99.90
2023-02-04T03:36:53.030Z,99.90
2023-02-04T03:37:15.762Z,1.00
2023-02-04T03:37:41.531Z,1.00
2023-02-04T03:38:04.327Z,1.00
2023-02-04T03:38:27.039Z,99.90
2023-02-04T03:38:52.334Z,1.00
2023-02-04T03:39:15.000Z,99.90
2023-02-04T03:39:37.811Z,99.90
2023-02-04T03:40:01.939Z,1.00
2023-02-04T03:40:24.825Z,99.90
2023-02-04T03:40:47.600Z,99.90
2023-02-04T03:41:10.331Z,99.90
2023-02-04T03:41:33.125Z,99.90
2023-02-04T03:41:56.007Z,99.90
2023-02-04T03:42:19.384Z,99.90
2023-02-04T03:42:44.624Z,99.90
2023-02-04T03:43:07.352Z,99.90
2023-02-04T03:43:31.210Z,99.90
2023-02-04T03:43:54.738Z,99.90
2023-02-04T03:44:19.703Z,1.00
2023-02-04T03:44:47.502Z,1.00
2023-02-04T03:45:10.463Z,1.00
2023-02-04T03:45:45.024Z,1.00
2023-02-04T03:46:10.748Z,1.00
2023-02-04T03:46:33.485Z,1.00
2023-02-04T03:46:56.818Z,55.50
2023-02-04T03:47:22.099Z,1.00
2023-02-04T03:47:44.786Z,1.00
2023-02-04T03:48:10.546Z,1.00
2023-02-04T03:48:33.302Z,1.00
2023-02-04T03:48:58.476Z,1.00
2023-02-04T03:49:23.450Z,1.00
2023-02-04T03:49:46.092Z,1.00
2023-02-04T03:50:11.387Z,1.00
2023-02-04T03:50:36.346Z,1.00
2023-02-04T03:51:01.297Z,1.00
2023-02-04T03:51:24.017Z,1.00
2023-02-04T03:51:48.993Z,1.00
2023-02-04T03:52:11.681Z,1.00
2023-02-04T03:52:34.543Z,1.00
2023-02-04T03:52:59.567Z,1.00
2023-02-04T03:53:22.301Z,1.00
2023-02-04T03:53:47.527Z,1.00
2023-02-04T03:54:12.707Z,1.00
2023-02-04T03:54:35.470Z,1.00
2023-02-04T03:55:00.656Z,1.00
2023-02-04T03:55:26.585Z,1.00
2023-02-04T03:55:49.298Z,1.00
2023-02-04T03:56:12.010Z,1.00
2023-02-04T03:56:34.737Z,13.30
2023-02-04T03:56:59.923Z,4.40
2023-02-04T03:57:22.765Z,1.00
2023-02-04T03:57:45.530Z,12.00
2023-02-04T03:58:10.488Z,1.00
2023-02-04T03:58:35.618Z,1.00
2023-02-04T03:58:58.382Z,1.00
2023-02-04T03:59:23.507Z,1.00
2023-02-04T03:59:46.145Z,1.00
2023-02-04T04:00:13.948Z,9.40
2023-02-04T04:00:36.642Z,1.00
2023-02-04T04:01:01.579Z,3.80
2023-02-04T04:01:24.413Z,2.70
2023-02-04T04:01:47.177Z,86.50
2023-02-04T04:02:09.898Z,58.60
2023-02-04T04:02:32.687Z,97.50
2023-02-04T04:02:55.445Z,99.70
2023-02-04T04:03:20.673Z,74.60
2023-02-04T04:03:43.443Z,1.00
2023-02-04T04:04:08.559Z,1.00
2023-02-04T04:04:31.242Z,25.90
2023-02-04T04:04:53.944Z,28.60
2023-02-04T04:05:19.875Z,6.00
2023-02-04T04:05:42.545Z,1.00
2023-02-04T04:06:07.777Z,1.00
2023-02-04T04:06:33.023Z,1.00
2023-02-04T04:06:55.808Z,1.00
2023-02-04T04:07:19.606Z,1.00
2023-02-04T04:07:44.508Z,1.00
2023-02-04T04:08:07.233Z,1.00
2023-02-04T04:08:32.873Z,1.00
2023-02-04T04:08:58.573Z,1.00
2023-02-04T04:09:21.385Z,1.00
2023-02-04T04:09:46.371Z,1.00
2023-02-04T04:10:09.623Z,1.00
2023-02-04T04:10:34.056Z,1.00
2023-02-04T04:10:58.359Z,1.00
2023-02-04T04:11:22.109Z,1.00
2023-02-04T04:11:44.789Z,1.00
2023-02-04T04:12:09.982Z,1.00
2023-02-04T04:12:32.779Z,1.00
2023-02-04T04:12:55.739Z,1.00
2023-02-04T04:13:18.837Z,1.00
2023-02-04T04:13:46.754Z,1.00
2023-02-04T04:14:09.489Z,1.00
2023-02-04T04:14:32.212Z,1.00
2023-02-04T04:14:55.062Z,1.00
2023-02-04T04:15:20.911Z,1.00
2023-02-04T04:15:43.674Z,1.00
2023-02-04T04:16:09.438Z,1.00
2023-02-04T04:16:33.360Z,99.90
2023-02-04T04:16:56.078Z,99.90
2023-02-04T04:17:18.816Z,99.90
2023-02-04T04:17:41.666Z,99.90
2023-02-04T04:18:05.017Z,99.90
2023-02-04T04:18:27.719Z,99.90
2023-02-04T04:18:50.438Z,1.00
2023-02-04T04:19:13.248Z,1.00
2023-02-04T04:19:35.949Z,1.00
2023-02-04T04:20:01.609Z,1.00
2023-02-04T04:20:28.338Z,1.00
2023-02-04T04:20:53.588Z,99.90
2023-02-04T04:21:16.428Z,1.00
2023-02-04T04:21:39.161Z,99.90
2023-02-04T04:22:01.841Z,99.90
2023-02-04T04:22:24.544Z,99.90
2023-02-04T04:22:47.222Z,99.90
2023-02-04T04:23:12.727Z,99.90
2023-02-04T04:23:35.534Z,99.90
2023-02-04T04:23:58.239Z,99.90
2023-02-04T04:24:20.949Z,99.90
2023-02-04T04:24:43.687Z,99.90
2023-02-04T04:25:07.902Z,99.90
2023-02-04T04:25:30.707Z,99.90
2023-02-04T04:25:54.856Z,99.90
2023-02-04T04:26:17.693Z,99.90
2023-02-04T04:26:40.517Z,99.90
2023-02-04T04:27:05.761Z,99.90
2023-02-04T04:27:30.444Z,99.90
2023-02-04T04:27:53.293Z,99.90
2023-02-04T04:28:16.074Z,99.90
2023-02-04T04:28:38.879Z,99.90
2023-02-04T04:29:01.681Z,99.90
2023-02-04T04:29:26.642Z,99.90
2023-02-04T04:29:49.300Z,99.90
2023-02-04T04:30:12.648Z,99.90
2023-02-04T04:30:35.394Z,99.90
2023-02-04T04:30:58.187Z,99.90
2023-02-04T04:31:21.341Z,99.90
2023-02-04T04:31:45.268Z,99.90
2023-02-04T04:32:09.926Z,99.90
2023-02-04T04:32:32.706Z,99.90
2023-02-04T04:32:57.654Z,99.90
2023-02-04T04:33:20.383Z,99.90
2023-02-04T04:33:43.174Z,99.90
2023-02-04T04:34:08.421Z,99.90
2023-02-04T04:34:31.190Z,99.90
2023-02-04T04:34:54.040Z,99.90
2023-02-04T04:35:19.376Z,99.90
2023-02-04T04:35:42.163Z,99.90
2023-02-04T04:36:05.353Z,99.90
2023-02-04T04:36:28.018Z,99.90
2023-02-04T04:36:50.736Z,99.90
2023-02-04T04:37:13.458Z,99.90
2023-02-04T04:37:36.146Z,99.90
2023-02-04T04:37:58.878Z,99.90
2023-02-04T04:38:21.696Z,99.90
2023-02-04T04:38:44.432Z,99.90
2023-02-04T04:39:10.245Z,99.90
2023-02-04T04:39:33.022Z,99.90
2023-02-04T04:39:55.753Z,1.00
2023-02-04T04:40:19.081Z,99.90
2023-02-04T04:40:41.798Z,99.90
2023-02-04T04:41:06.041Z,99.90
2023-02-04T04:41:28.656Z,99.90
2023-02-04T04:41:51.421Z,99.90
2023-02-04T04:42:16.586Z,99.90
2023-02-04T04:42:39.320Z,99.90
2023-02-04T04:43:02.053Z,99.90
2023-02-04T04:43:27.210Z,99.90
2023-02-04T04:43:50.908Z,99.90
2023-02-04T04:44:13.631Z,99.90
2023-02-04T04:44:36.340Z,99.90
2023-02-04T04:45:02.260Z,99.90
2023-02-04T04:45:25.027Z,99.90
2023-02-04T04:45:47.771Z,99.90
2023-02-04T04:46:10.565Z,99.90
2023-02-04T04:46:33.326Z,99.90
2023-02-04T04:46:56.207Z,99.90
2023-02-04T04:47:18.930Z,99.90
2023-02-04T04:47:41.660Z,99.90
2023-02-04T04:48:04.902Z,99.90
2023-02-04T04:48:27.696Z,99.90
2023-02-04T04:48:50.414Z,99.90
2023-02-04T04:49:13.129Z,99.90
2023-02-04T04:49:35.882Z,99.90
2023-02-04T04:49:58.605Z,99.90
2023-02-04T04:50:21.307Z,99.90
2023-02-04T04:50:46.470Z,1.00
2023-02-04T04:51:09.259Z,1.00
2023-02-04T04:51:34.494Z,1.00
2023-02-04T04:51:57.239Z,1.00
2023-02-04T04:52:20.044Z,1.00
2023-02-04T04:52:45.064Z,1.00
2023-02-04T04:53:11.332Z,1.00
2023-02-04T04:53:34.236Z,99.90
2023-02-04T04:53:59.943Z,1.00
2023-02-04T04:54:22.681Z,1.00
2023-02-04T04:54:47.714Z,1.00
2023-02-04T04:55:10.984Z,1.00
2023-02-04T04:55:36.872Z,1.00
2023-02-04T04:56:01.833Z,1.00
2023-02-04T04:56:26.055Z,1.00
2023-02-04T04:56:51.330Z,1.00
2023-02-04T04:57:16.478Z,1.00
2023-02-04T04:57:39.298Z,1.00
2023-02-04T04:58:04.243Z,1.00
2023-02-04T04:58:27.014Z,1.00
2023-02-04T04:58:49.831Z,1.00
2023-02-04T04:59:12.481Z,1.00
2023-02-04T04:59:37.363Z,1.00
2023-02-04T05:00:00.171Z,1.00
2023-02-04T05:00:26.418Z,1.00
2023-02-04T05:00:49.192Z,1.00
2023-02-04T05:01:14.447Z,1.00
2023-02-04T05:01:39.654Z,1.00
2023-02-04T05:02:02.402Z,1.00
2023-02-04T05:02:27.684Z,1.00
2023-02-04T05:02:53.511Z,1.00
2023-02-04T05:03:16.310Z,1.00
2023-02-04T05:03:39.037Z,1.00
2023-02-04T05:04:04.127Z,1.00
2023-02-04T05:04:26.835Z,1.00
2023-02-04T05:04:49.613Z,1.00
2023-02-04T05:05:14.889Z,1.00
2023-02-04T05:05:40.966Z,1.00
2023-02-04T05:06:03.806Z,1.00
2023-02-04T05:06:26.588Z,1.00
2023-02-04T05:06:52.240Z,1.00
2023-02-04T05:07:14.989Z,1.00
2023-02-04T05:07:37.733Z,1.00
2023-02-04T05:08:03.419Z,1.00
2023-02-04T05:08:26.092Z,1.00
2023-02-04T05:08:51.820Z,5.20
2023-02-04T05:09:16.814Z,1.00
2023-02-04T05:09:44.341Z,1.00
2023-02-04T05:10:07.437Z,1.00
2023-02-04T05:10:30.629Z,1.00
2023-02-04T05:10:55.898Z,1.00
2023-02-04T05:11:18.611Z,1.00